sensor_id;sensor_type;location;lat;lon;timestamp;temperature;humidity
68746;SHT31;66104;45.456;11.064;2023-05-19T07:58:12;18.06;54.12
68746;SHT31;66104;45.456;11.064;2023-05-19T08:00:48;18.16;53.90
68746;SHT31;66104;45.456;11.064;2023-05-19T08:03:27;18.21;53.44
68746;SHT31;66104;45.456;11.064;2023-05-19T08:06:05;18.27;53.30
68746;SHT31;66104;45.456;11.064;2023-05-19T08:08:43;18.35;53.40
68746;SHT31;66104;45.456;11.064;2023-05-19T08:11:20;18.41;53.35
68746;SHT31;66104;45.456;11.064;2023-05-19T08:13:57;18.46;52.99
68746;SHT31;66104;45.456;11.064;2023-05-19T08:16:33;18.52;53.24
68746;SHT31;66104;45.456;11.064;2023-05-19T08:19:13;18.55;52.86
68746;SHT31;66104;45.456;11.064;2023-05-19T08:21:50;18.53;52.90
68746;SHT31;66104;45.456;11.064;2023-05-19T08:24:29;18.48;53.47
68746;SHT31;66104;45.456;11.064;2023-05-19T08:27:06;18.44;53.01
68746;SHT31;66104;45.456;11.064;2023-05-19T08:29:44;18.42;53.48
68746;SHT31;66104;45.456;11.064;2023-05-19T08:32:22;18.42;53.00
68746;SHT31;66104;45.456;11.064;2023-05-19T08:34:57;18.44;53.18
68746;SHT31;66104;45.456;11.064;2023-05-19T08:37:35;18.48;53.62
68746;SHT31;66104;45.456;11.064;2023-05-19T08:40:15;18.53;53.78
68746;SHT31;66104;45.456;11.064;2023-05-19T08:42:52;18.56;53.80
68746;SHT31;66104;45.456;11.064;2023-05-19T08:45:29;18.56;53.51
68746;SHT31;66104;45.456;11.064;2023-05-19T08:48:07;18.54;53.37
68746;SHT31;66104;45.456;11.064;2023-05-19T08:50:49;18.55;53.48
68746;SHT31;66104;45.456;11.064;2023-05-19T08:53:38;18.57;53.15
68746;SHT31;66104;45.456;11.064;2023-05-19T08:56:20;18.52;52.50
68746;SHT31;66104;45.456;11.064;2023-05-19T08:58:57;18.52;53.13
68746;SHT31;66104;45.456;11.064;2023-05-19T09:01:36;18.52;52.60
68746;SHT31;66104;45.456;11.064;2023-05-19T09:04:15;18.55;52.86
68746;SHT31;66104;45.456;11.064;2023-05-19T09:06:53;18.50;52.57
68746;SHT31;66104;45.456;11.064;2023-05-19T09:09:31;18.46;52.68
68746;SHT31;66104;45.456;11.064;2023-05-19T09:12:11;18.44;52.67
68746;SHT31;66104;45.456;11.064;2023-05-19T09:14:49;18.43;52.76
68746;SHT31;66104;45.456;11.064;2023-05-19T09:17:27;18.43;52.88
68746;SHT31;66104;45.456;11.064;2023-05-19T09:20:04;18.44;53.17
68746;SHT31;66104;45.456;11.064;2023-05-19T09:22:45;18.43;53.06
68746;SHT31;66104;45.456;11.064;2023-05-19T09:25:22;18.42;53.36
68746;SHT31;66104;45.456;11.064;2023-05-19T09:27:59;18.39;53.47
68746;SHT31;66104;45.456;11.064;2023-05-19T09:30:39;18.38;53.75
68746;SHT31;66104;45.456;11.064;2023-05-19T09:33:18;18.39;53.66
68746;SHT31;66104;45.456;11.064;2023-05-19T09:35:54;18.36;53.70
68746;SHT31;66104;45.456;11.064;2023-05-19T09:38:31;18.37;54.13
68746;SHT31;66104;45.456;11.064;2023-05-19T09:41:08;18.40;54.16
68746;SHT31;66104;45.456;11.064;2023-05-19T09:43:48;18.38;53.68
68746;SHT31;66104;45.456;11.064;2023-05-19T09:46:29;18.37;54.01
68746;SHT31;66104;45.456;11.064;2023-05-19T09:49:09;18.37;54.13
68746;SHT31;66104;45.456;11.064;2023-05-19T09:51:52;18.38;53.96
68746;SHT31;66104;45.456;11.064;2023-05-19T09:54:28;18.40;54.30
68746;SHT31;66104;45.456;11.064;2023-05-19T09:57:07;18.40;54.26
68746;SHT31;66104;45.456;11.064;2023-05-19T09:59:43;18.41;54.28
68746;SHT31;66104;45.456;11.064;2023-05-19T10:02:23;18.39;54.57
68746;SHT31;66104;45.456;11.064;2023-05-19T10:05:01;18.42;54.77
68746;SHT31;66104;45.456;11.064;2023-05-19T10:07:40;18.46;54.49
68746;SHT31;66104;45.456;11.064;2023-05-19T10:10:19;18.47;54.47
68746;SHT31;66104;45.456;11.064;2023-05-19T10:12:58;18.51;54.58
68746;SHT31;66104;45.456;11.064;2023-05-19T10:15:35;18.59;54.69
68746;SHT31;66104;45.456;11.064;2023-05-19T10:18:26;18.62;54.93
68746;SHT31;66104;45.456;11.064;2023-05-19T10:21:07;18.64;55.65
68746;SHT31;66104;45.456;11.064;2023-05-19T10:23:43;18.69;55.61
68746;SHT31;66104;45.456;11.064;2023-05-19T10:26:20;18.77;55.81
68746;SHT31;66104;45.456;11.064;2023-05-19T10:28:59;18.90;55.81
68746;SHT31;66104;45.456;11.064;2023-05-19T10:31:37;18.94;55.39
68746;SHT31;66104;45.456;11.064;2023-05-19T10:34:22;18.93;55.16
68746;SHT31;66104;45.456;11.064;2023-05-19T10:37:30;18.97;55.64
68746;SHT31;66104;45.456;11.064;2023-05-19T10:40:19;19.06;55.71
68746;SHT31;66104;45.456;11.064;2023-05-19T10:43:06;19.14;55.64
68746;SHT31;66104;45.456;11.064;2023-05-19T10:46:02;19.13;55.06
68746;SHT31;66104;45.456;11.064;2023-05-19T10:48:39;19.09;55.47
68746;SHT31;66104;45.456;11.064;2023-05-19T10:51:20;19.09;55.16
68746;SHT31;66104;45.456;11.064;2023-05-19T10:54:02;19.11;55.50
68746;SHT31;66104;45.456;11.064;2023-05-19T10:56:42;19.13;55.85
68746;SHT31;66104;45.456;11.064;2023-05-19T10:59:32;19.14;56.22
68746;SHT31;66104;45.456;11.064;2023-05-19T11:02:08;19.09;56.26
68746;SHT31;66104;45.456;11.064;2023-05-19T11:05:12;19.09;56.62
68746;SHT31;66104;45.456;11.064;2023-05-19T11:07:59;19.10;57.40
68746;SHT31;66104;45.456;11.064;2023-05-19T11:10:40;19.13;57.25
68746;SHT31;66104;45.456;11.064;2023-05-19T11:13:25;19.10;56.43
68746;SHT31;66104;45.456;11.064;2023-05-19T11:16:07;19.10;56.21
68746;SHT31;66104;45.456;11.064;2023-05-19T11:18:49;19.14;56.44
68746;SHT31;66104;45.456;11.064;2023-05-19T11:21:25;19.19;56.83
68746;SHT31;66104;45.456;11.064;2023-05-19T11:27:21;19.28;56.42
68746;SHT31;66104;45.456;11.064;2023-05-19T11:30:08;19.32;56.53
68746;SHT31;66104;45.456;11.064;2023-05-19T11:32:48;19.36;55.96
68746;SHT31;66104;45.456;11.064;2023-05-19T11:35:26;19.36;56.09
68746;SHT31;66104;45.456;11.064;2023-05-19T11:38:06;19.37;56.66
68746;SHT31;66104;45.456;11.064;2023-05-19T11:40:43;19.46;56.43
68746;SHT31;66104;45.456;11.064;2023-05-19T11:43:24;19.49;55.30
68746;SHT31;66104;45.456;11.064;2023-05-19T11:46:01;19.45;54.81
68746;SHT31;66104;45.456;11.064;2023-05-19T11:48:40;19.43;55.20
68746;SHT31;66104;45.456;11.064;2023-05-19T11:51:19;19.38;55.49
68746;SHT31;66104;45.456;11.064;2023-05-19T11:53:56;19.32;54.86
68746;SHT31;66104;45.456;11.064;2023-05-19T11:56:38;19.25;55.13
68746;SHT31;66104;45.456;11.064;2023-05-19T11:59:15;19.22;55.49
68746;SHT31;66104;45.456;11.064;2023-05-19T12:02:16;19.19;55.23
68746;SHT31;66104;45.456;11.064;2023-05-19T12:04:55;19.14;55.34
68746;SHT31;66104;45.456;11.064;2023-05-19T12:07:33;19.11;55.44
68746;SHT31;66104;45.456;11.064;2023-05-19T12:10:12;19.10;56.02
68746;SHT31;66104;45.456;11.064;2023-05-19T12:12:51;19.09;56.49
68746;SHT31;66104;45.456;11.064;2023-05-19T12:15:30;19.13;56.69
68746;SHT31;66104;45.456;11.064;2023-05-19T12:18:05;19.16;56.25
68746;SHT31;66104;45.456;11.064;2023-05-19T12:20:43;19.19;56.92
68746;SHT31;66104;45.456;11.064;2023-05-19T12:23:20;19.26;57.73
68746;SHT31;66104;45.456;11.064;2023-05-19T12:25:59;19.30;57.64
68746;SHT31;66104;45.456;11.064;2023-05-19T12:28:38;19.28;57.82
68746;SHT31;66104;45.456;11.064;2023-05-19T12:31:18;19.26;58.00
68746;SHT31;66104;45.456;11.064;2023-05-19T12:33:56;19.26;57.81
68746;SHT31;66104;45.456;11.064;2023-05-19T12:36:35;19.26;57.87
68746;SHT31;66104;45.456;11.064;2023-05-19T12:39:15;19.23;58.36
68746;SHT31;66104;45.456;11.064;2023-05-19T12:41:51;19.20;58.38
68746;SHT31;66104;45.456;11.064;2023-05-19T12:44:37;19.15;58.71
68746;SHT31;66104;45.456;11.064;2023-05-19T12:47:19;19.08;58.96
68746;SHT31;66104;45.456;11.064;2023-05-19T12:50:02;19.05;59.46
68746;SHT31;66104;45.456;11.064;2023-05-19T12:52:44;19.02;59.35
68746;SHT31;66104;45.456;11.064;2023-05-19T12:55:22;19.01;59.24
68746;SHT31;66104;45.456;11.064;2023-05-19T12:57:59;18.99;59.61
68746;SHT31;66104;45.456;11.064;2023-05-19T13:00:42;18.97;59.72
68746;SHT31;66104;45.456;11.064;2023-05-19T13:03:19;18.95;59.78
68746;SHT31;66104;45.456;11.064;2023-05-19T13:05:56;18.94;59.94
68746;SHT31;66104;45.456;11.064;2023-05-19T13:08:33;18.91;60.00
68746;SHT31;66104;45.456;11.064;2023-05-19T13:11:12;18.91;60.60
68746;SHT31;66104;45.456;11.064;2023-05-19T13:13:48;18.92;61.89
68746;SHT31;66104;45.456;11.064;2023-05-19T13:16:25;18.93;62.08
68746;SHT31;66104;45.456;11.064;2023-05-19T13:19:02;18.90;61.86
68746;SHT31;66104;45.456;11.064;2023-05-19T13:21:53;18.88;62.81
68746;SHT31;66104;45.456;11.064;2023-05-19T13:24:30;18.92;63.29
68746;SHT31;66104;45.456;11.064;2023-05-19T13:27:07;18.92;63.56
68746;SHT31;66104;45.456;11.064;2023-05-19T13:29:44;18.89;63.70
68746;SHT31;66104;45.456;11.064;2023-05-19T13:32:20;18.87;64.18
68746;SHT31;66104;45.456;11.064;2023-05-19T13:34:58;18.84;64.14
68746;SHT31;66104;45.456;11.064;2023-05-19T13:37:35;18.84;64.13
68746;SHT31;66104;45.456;11.064;2023-05-19T13:40:13;18.83;64.49
68746;SHT31;66104;45.456;11.064;2023-05-19T13:42:51;18.85;64.91
68746;SHT31;66104;45.456;11.064;2023-05-19T13:45:29;18.84;65.01
68746;SHT31;66104;45.456;11.064;2023-05-19T13:48:07;18.84;65.03
68746;SHT31;66104;45.456;11.064;2023-05-19T13:50:43;18.83;65.57
68746;SHT31;66104;45.456;11.064;2023-05-19T13:53:22;18.83;65.83
68746;SHT31;66104;45.456;11.064;2023-05-19T13:56:00;18.85;65.63
68746;SHT31;66104;45.456;11.064;2023-05-19T13:58:40;18.83;65.24
68746;SHT31;66104;45.456;11.064;2023-05-19T14:01:17;18.79;65.56
68746;SHT31;66104;45.456;11.064;2023-05-19T14:03:54;18.83;65.69
68746;SHT31;66104;45.456;11.064;2023-05-19T14:06:33;18.83;65.70
68746;SHT31;66104;45.456;11.064;2023-05-19T14:09:09;18.85;66.48
68746;SHT31;66104;45.456;11.064;2023-05-19T14:11:47;18.85;67.30
68746;SHT31;66104;45.456;11.064;2023-05-19T14:14:23;18.86;67.72
68746;SHT31;66104;45.456;11.064;2023-05-19T14:17:02;18.85;68.67
68746;SHT31;66104;45.456;11.064;2023-05-19T14:19:40;18.79;69.44
68746;SHT31;66104;45.456;11.064;2023-05-19T14:22:16;18.71;69.92
68746;SHT31;66104;45.456;11.064;2023-05-19T14:24:53;18.60;69.83
68746;SHT31;66104;45.456;11.064;2023-05-19T14:27:30;18.54;70.20
68746;SHT31;66104;45.456;11.064;2023-05-19T14:30:10;18.49;70.68
68746;SHT31;66104;45.456;11.064;2023-05-19T14:32:48;18.40;71.09
68746;SHT31;66104;45.456;11.064;2023-05-19T14:35:27;18.35;71.65
68746;SHT31;66104;45.456;11.064;2023-05-19T14:38:04;18.32;71.83
68746;SHT31;66104;45.456;11.064;2023-05-19T14:40:40;18.30;71.95
68746;SHT31;66104;45.456;11.064;2023-05-19T14:43:16;18.32;71.66
68746;SHT31;66104;45.456;11.064;2023-05-19T14:45:53;18.23;71.32
68746;SHT31;66104;45.456;11.064;2023-05-19T14:48:30;18.17;71.51
68746;SHT31;66104;45.456;11.064;2023-05-19T14:51:06;18.17;71.52
68746;SHT31;66104;45.456;11.064;2023-05-19T14:53:44;18.13;72.07
68746;SHT31;66104;45.456;11.064;2023-05-19T14:56:21;18.03;72.22
68746;SHT31;66104;45.456;11.064;2023-05-19T14:58:57;17.88;72.39
68746;SHT31;66104;45.456;11.064;2023-05-19T15:01:34;17.83;72.93
68746;SHT31;66104;45.456;11.064;2023-05-19T15:04:12;17.80;73.08
68746;SHT31;66104;45.456;11.064;2023-05-19T15:06:48;17.78;72.80
68746;SHT31;66104;45.456;11.064;2023-05-19T15:09:38;17.71;72.27
68746;SHT31;66104;45.456;11.064;2023-05-19T15:12:14;17.66;72.77
68746;SHT31;66104;45.456;11.064;2023-05-19T15:14:51;17.64;72.88
68746;SHT31;66104;45.456;11.064;2023-05-19T15:17:30;17.62;72.83
68746;SHT31;66104;45.456;11.064;2023-05-19T15:20:08;17.62;72.81
68746;SHT31;66104;45.456;11.064;2023-05-19T15:22:47;17.60;72.51
68746;SHT31;66104;45.456;11.064;2023-05-19T15:25:23;17.59;72.94
68746;SHT31;66104;45.456;11.064;2023-05-19T15:28:01;17.61;73.07
68746;SHT31;66104;45.456;11.064;2023-05-19T15:30:39;17.60;72.98
68746;SHT31;66104;45.456;11.064;2023-05-19T15:33:16;17.59;73.10
68746;SHT31;66104;45.456;11.064;2023-05-19T15:35:54;17.58;73.30
68746;SHT31;66104;45.456;11.064;2023-05-19T15:38:31;17.59;73.82
68746;SHT31;66104;45.456;11.064;2023-05-19T15:41:10;17.60;73.87
68746;SHT31;66104;45.456;11.064;2023-05-19T15:43:49;17.62;74.12
68746;SHT31;66104;45.456;11.064;2023-05-19T15:46:28;17.64;74.33
68746;SHT31;66104;45.456;11.064;2023-05-19T15:49:05;17.66;73.98
68746;SHT31;66104;45.456;11.064;2023-05-19T15:51:42;17.64;74.10
68746;SHT31;66104;45.456;11.064;2023-05-19T15:54:19;17.67;74.46
68746;SHT31;66104;45.456;11.064;2023-05-19T15:56:56;17.67;74.52
68746;SHT31;66104;45.456;11.064;2023-05-19T15:59:34;17.67;74.47
68746;SHT31;66104;45.456;11.064;2023-05-19T16:02:11;17.70;74.42
68746;SHT31;66104;45.456;11.064;2023-05-19T16:04:48;17.70;74.55
68746;SHT31;66104;45.456;11.064;2023-05-19T16:07:25;17.71;74.60
68746;SHT31;66104;45.456;11.064;2023-05-19T16:10:04;17.70;74.69
68746;SHT31;66104;45.456;11.064;2023-05-19T16:12:43;17.67;74.91
68746;SHT31;66104;45.456;11.064;2023-05-19T16:15:21;17.66;75.08
68746;SHT31;66104;45.456;11.064;2023-05-19T16:18:03;17.67;75.17
68746;SHT31;66104;45.456;11.064;2023-05-19T16:20:40;17.66;75.22
68746;SHT31;66104;45.456;11.064;2023-05-19T16:23:17;17.64;74.85
68746;SHT31;66104;45.456;11.064;2023-05-19T16:25:55;17.58;75.23
68746;SHT31;66104;45.456;11.064;2023-05-19T16:28:33;17.55;75.64
68746;SHT31;66104;45.456;11.064;2023-05-19T16:31:09;17.57;75.61
68746;SHT31;66104;45.456;11.064;2023-05-19T16:33:45;17.60;75.84
68746;SHT31;66104;45.456;11.064;2023-05-19T16:36:23;17.63;75.45
68746;SHT31;66104;45.456;11.064;2023-05-19T16:39:01;17.60;75.16
68746;SHT31;66104;45.456;11.064;2023-05-19T16:41:40;17.60;75.15
68746;SHT31;66104;45.456;11.064;2023-05-19T16:44:17;17.63;75.36
68746;SHT31;66104;45.456;11.064;2023-05-19T16:46:55;17.66;75.06
68746;SHT31;66104;45.456;11.064;2023-05-19T16:49:32;17.67;74.82
68746;SHT31;66104;45.456;11.064;2023-05-19T16:52:10;17.68;74.90
68746;SHT31;66104;45.456;11.064;2023-05-19T16:54:48;17.68;73.16
68746;SHT31;66104;45.456;11.064;2023-05-19T16:57:25;17.66;72.27
68746;SHT31;66104;45.456;11.064;2023-05-19T17:00:03;17.66;72.73
68746;SHT31;66104;45.456;11.064;2023-05-19T17:02:46;17.69;73.61
68746;SHT31;66104;45.456;11.064;2023-05-19T17:05:24;17.72;73.88
68746;SHT31;66104;45.456;11.064;2023-05-19T17:08:02;17.77;73.42
68746;SHT31;66104;45.456;11.064;2023-05-19T17:10:41;17.78;74.36
68746;SHT31;66104;45.456;11.064;2023-05-19T17:13:20;17.80;74.98
68746;SHT31;66104;45.456;11.064;2023-05-19T17:15:57;17.82;75.35
68746;SHT31;66104;45.456;11.064;2023-05-19T17:18:35;17.81;75.54
68746;SHT31;66104;45.456;11.064;2023-05-19T17:21:12;17.81;75.68
68746;SHT31;66104;45.456;11.064;2023-05-19T17:23:49;17.82;75.79
68746;SHT31;66104;45.456;11.064;2023-05-19T17:26:27;17.84;75.79
68746;SHT31;66104;45.456;11.064;2023-05-19T17:29:05;17.85;75.69
68746;SHT31;66104;45.456;11.064;2023-05-19T17:31:42;17.86;75.65
68746;SHT31;66104;45.456;11.064;2023-05-19T17:34:19;17.88;75.74
68746;SHT31;66104;45.456;11.064;2023-05-19T17:36:56;17.87;75.62
68746;SHT31;66104;45.456;11.064;2023-05-19T17:39:33;17.89;75.37
68746;SHT31;66104;45.456;11.064;2023-05-19T17:42:11;17.84;75.73
68746;SHT31;66104;45.456;11.064;2023-05-19T17:44:48;17.78;76.09
68746;SHT31;66104;45.456;11.064;2023-05-19T17:47:25;17.72;76.41
68746;SHT31;66104;45.456;11.064;2023-05-19T17:50:04;17.65;76.80
68746;SHT31;66104;45.456;11.064;2023-05-19T17:52:45;17.59;76.96
68746;SHT31;66104;45.456;11.064;2023-05-19T17:55:27;17.54;77.31
68746;SHT31;66104;45.456;11.064;2023-05-19T17:58:11;17.50;77.41
68746;SHT31;66104;45.456;11.064;2023-05-19T18:00:53;17.46;77.52
68746;SHT31;66104;45.456;11.064;2023-05-19T18:03:32;17.43;77.82
68746;SHT31;66104;45.456;11.064;2023-05-19T18:06:17;17.37;78.28
68746;SHT31;66104;45.456;11.064;2023-05-19T18:09:02;17.32;78.61
68746;SHT31;66104;45.456;11.064;2023-05-19T18:11:42;17.27;78.69
68746;SHT31;66104;45.456;11.064;2023-05-19T18:14:19;17.27;78.88
68746;SHT31;66104;45.456;11.064;2023-05-19T18:17:00;17.28;79.01
68746;SHT31;66104;45.456;11.064;2023-05-19T18:19:38;17.30;79.01
68746;SHT31;66104;45.456;11.064;2023-05-19T18:22:17;17.33;78.92
68746;SHT31;66104;45.456;11.064;2023-05-19T18:24:54;17.35;78.92
68746;SHT31;66104;45.456;11.064;2023-05-19T18:27:30;17.36;78.94
68746;SHT31;66104;45.456;11.064;2023-05-19T18:30:09;17.33;78.90
68746;SHT31;66104;45.456;11.064;2023-05-19T18:32:47;17.27;79.03
68746;SHT31;66104;45.456;11.064;2023-05-19T18:35:24;17.26;79.31
68746;SHT31;66104;45.456;11.064;2023-05-19T18:38:03;17.24;79.39
68746;SHT31;66104;45.456;11.064;2023-05-19T18:40:43;17.23;79.46
68746;SHT31;66104;45.456;11.064;2023-05-19T18:43:19;17.24;79.59
68746;SHT31;66104;45.456;11.064;2023-05-19T18:45:58;17.24;79.64
68746;SHT31;66104;45.456;11.064;2023-05-19T18:48:37;17.26;79.71
68746;SHT31;66104;45.456;11.064;2023-05-19T18:51:13;17.28;79.71
68746;SHT31;66104;45.456;11.064;2023-05-19T18:53:51;17.27;79.77
68746;SHT31;66104;45.456;11.064;2023-05-19T18:56:31;17.30;79.75
68746;SHT31;66104;45.456;11.064;2023-05-19T18:59:10;17.27;79.67
68746;SHT31;66104;45.456;11.064;2023-05-19T19:01:47;17.24;79.55
68746;SHT31;66104;45.456;11.064;2023-05-19T19:04:31;17.21;79.47
68746;SHT31;66104;45.456;11.064;2023-05-19T19:07:09;17.22;79.36
68746;SHT31;66104;45.456;11.064;2023-05-19T19:09:46;17.21;79.18
68746;SHT31;66104;45.456;11.064;2023-05-19T19:12:26;17.22;79.18
68746;SHT31;66104;45.456;11.064;2023-05-19T19:15:11;17.24;79.13
68746;SHT31;66104;45.456;11.064;2023-05-19T19:17:59;17.27;78.94
68746;SHT31;66104;45.456;11.064;2023-05-19T19:20:37;17.30;79.01
68746;SHT31;66104;45.456;11.064;2023-05-19T19:23:23;17.33;79.18
68746;SHT31;66104;45.456;11.064;2023-05-19T19:26:02;17.33;79.37
68746;SHT31;66104;45.456;11.064;2023-05-19T19:28:42;17.33;79.53
68746;SHT31;66104;45.456;11.064;2023-05-19T19:31:21;17.34;79.58
68746;SHT31;66104;45.456;11.064;2023-05-19T19:34:05;17.34;79.63
68746;SHT31;66104;45.456;11.064;2023-05-19T19:36:46;17.32;79.68
68746;SHT31;66104;45.456;11.064;2023-05-19T19:39:23;17.29;79.41
68746;SHT31;66104;45.456;11.064;2023-05-19T19:42:00;17.26;79.16
68746;SHT31;66104;45.456;11.064;2023-05-19T19:44:39;17.23;76.59
68746;SHT31;66104;45.456;11.064;2023-05-19T19:47:18;17.19;77.23
68746;SHT31;66104;45.456;11.064;2023-05-19T19:49:58;17.15;76.93
68746;SHT31;66104;45.456;11.064;2023-05-19T19:52:38;17.12;75.93
68746;SHT31;66104;45.456;11.064;2023-05-19T19:55:22;17.09;74.45
68746;SHT31;66104;45.456;11.064;2023-05-19T19:58:01;17.11;72.43
68746;SHT31;66104;45.456;11.064;2023-05-19T20:00:39;17.14;70.95
68746;SHT31;66104;45.456;11.064;2023-05-19T20:03:23;17.19;70.16
68746;SHT31;66104;45.456;11.064;2023-05-19T20:06:08;17.24;69.09
68746;SHT31;66104;45.456;11.064;2023-05-19T20:08:47;17.29;69.06
68746;SHT31;66104;45.456;11.064;2023-05-19T20:11:28;17.30;69.15
68746;SHT31;66104;45.456;11.064;2023-05-19T20:14:11;17.31;68.77
68746;SHT31;66104;45.456;11.064;2023-05-19T20:16:49;17.32;68.64
68746;SHT31;66104;45.456;11.064;2023-05-19T20:19:29;17.32;68.19
68746;SHT31;66104;45.456;11.064;2023-05-19T20:22:10;17.33;68.20
68746;SHT31;66104;45.456;11.064;2023-05-19T20:24:52;17.32;68.43
68746;SHT31;66104;45.456;11.064;2023-05-19T20:27:32;17.31;68.59
68746;SHT31;66104;45.456;11.064;2023-05-19T20:30:13;17.29;68.63
68746;SHT31;66104;45.456;11.064;2023-05-19T20:32:54;17.26;68.85
68746;SHT31;66104;45.456;11.064;2023-05-19T20:35:31;17.22;69.52
68746;SHT31;66104;45.456;11.064;2023-05-19T20:38:12;17.18;69.46
68746;SHT31;66104;45.456;11.064;2023-05-19T20:40:51;17.15;69.17
68746;SHT31;66104;45.456;11.064;2023-05-19T20:43:31;17.14;69.67
68746;SHT31;66104;45.456;11.064;2023-05-19T20:46:11;17.09;70.16
68746;SHT31;66104;45.456;11.064;2023-05-19T20:48:50;17.06;70.04
68746;SHT31;66104;45.456;11.064;2023-05-19T20:51:28;17.05;70.05
68746;SHT31;66104;45.456;11.064;2023-05-19T20:54:05;17.05;70.65
68746;SHT31;66104;45.456;11.064;2023-05-19T20:56:43;17.02;70.33
68746;SHT31;66104;45.456;11.064;2023-05-19T20:59:22;17.03;70.30
68746;SHT31;66104;45.456;11.064;2023-05-19T21:01:58;17.03;70.70
68746;SHT31;66104;45.456;11.064;2023-05-19T21:04:36;17.01;70.64
68746;SHT31;66104;45.456;11.064;2023-05-19T21:07:15;16.99;70.99
68746;SHT31;66104;45.456;11.064;2023-05-19T21:09:53;16.98;71.23
68746;SHT31;66104;45.456;11.064;2023-05-19T21:12:41;16.95;71.37
68746;SHT31;66104;45.456;11.064;2023-05-19T21:15:20;16.95;71.28
68746;SHT31;66104;45.456;11.064;2023-05-19T21:17:57;16.96;71.32
68746;SHT31;66104;45.456;11.064;2023-05-19T21:20:35;16.97;71.54
68746;SHT31;66104;45.456;11.064;2023-05-19T21:23:14;16.96;71.44
68746;SHT31;66104;45.456;11.064;2023-05-19T21:25:52;16.98;71.20
68746;SHT31;66104;45.456;11.064;2023-05-19T21:28:30;17.00;71.00
68746;SHT31;66104;45.456;11.064;2023-05-19T21:31:07;17.02;70.80
68746;SHT31;66104;45.456;11.064;2023-05-19T21:33:45;17.05;70.32
68746;SHT31;66104;45.456;11.064;2023-05-19T21:36:24;17.08;70.17
68746;SHT31;66104;45.456;11.064;2023-05-19T21:39:02;17.11;69.72
68746;SHT31;66104;45.456;11.064;2023-05-19T21:41:41;17.16;69.33
68746;SHT31;66104;45.456;11.064;2023-05-19T21:44:20;17.20;68.68
68746;SHT31;66104;45.456;11.064;2023-05-19T21:47:00;17.26;67.82
68746;SHT31;66104;45.456;11.064;2023-05-19T21:49:39;17.33;67.54
68746;SHT31;66104;45.456;11.064;2023-05-19T21:52:20;17.36;67.56
68746;SHT31;66104;45.456;11.064;2023-05-19T21:54:59;17.40;66.95
68746;SHT31;66104;45.456;11.064;2023-05-19T21:57:43;17.42;66.80
68746;SHT31;66104;45.456;11.064;2023-05-19T22:00:24;17.46;66.32
68746;SHT31;66104;45.456;11.064;2023-05-19T22:03:02;17.50;65.75
68746;SHT31;66104;45.456;11.064;2023-05-19T22:05:42;17.53;64.78
68746;SHT31;66104;45.456;11.064;2023-05-19T22:08:27;17.58;64.83
68746;SHT31;66104;45.456;11.064;2023-05-19T22:11:08;17.60;64.37
68746;SHT31;66104;45.456;11.064;2023-05-19T22:13:49;17.61;64.33
68746;SHT31;66104;45.456;11.064;2023-05-19T22:16:29;17.62;63.97
68746;SHT31;66104;45.456;11.064;2023-05-19T22:19:09;17.63;63.79
68746;SHT31;66104;45.456;11.064;2023-05-19T22:21:49;17.64;63.64
68746;SHT31;66104;45.456;11.064;2023-05-19T22:24:41;17.66;62.75
68746;SHT31;66104;45.456;11.064;2023-05-19T22:27:20;17.67;63.10
68746;SHT31;66104;45.456;11.064;2023-05-19T22:30:01;17.68;62.81
68746;SHT31;66104;45.456;11.064;2023-05-19T22:32:45;17.68;62.69
68746;SHT31;66104;45.456;11.064;2023-05-19T22:35:28;17.69;62.99
68746;SHT31;66104;45.456;11.064;2023-05-19T22:38:12;17.70;63.07
68746;SHT31;66104;45.456;11.064;2023-05-19T22:40:51;17.69;63.16
68746;SHT31;66104;45.456;11.064;2023-05-19T22:43:31;17.69;62.58
68746;SHT31;66104;45.456;11.064;2023-05-19T22:46:12;17.69;62.53
68746;SHT31;66104;45.456;11.064;2023-05-19T22:48:52;17.67;62.84
68746;SHT31;66104;45.456;11.064;2023-05-19T22:51:32;17.67;62.31
68746;SHT31;66104;45.456;11.064;2023-05-19T22:54:12;17.67;62.18
68746;SHT31;66104;45.456;11.064;2023-05-19T22:56:53;17.67;60.94
68746;SHT31;66104;45.456;11.064;2023-05-19T22:59:34;17.70;60.83
68746;SHT31;66104;45.456;11.064;2023-05-19T23:02:16;17.72;60.58
68746;SHT31;66104;45.456;11.064;2023-05-19T23:04:57;17.74;60.52
68746;SHT31;66104;45.456;11.064;2023-05-19T23:07:37;17.75;60.44
68746;SHT31;66104;45.456;11.064;2023-05-19T23:10:17;17.75;60.10
68746;SHT31;66104;45.456;11.064;2023-05-19T23:12:57;17.77;60.19
68746;SHT31;66104;45.456;11.064;2023-05-19T23:15:37;17.76;60.10
68746;SHT31;66104;45.456;11.064;2023-05-19T23:18:16;17.74;60.02
68746;SHT31;66104;45.456;11.064;2023-05-19T23:20:55;17.74;59.86
68746;SHT31;66104;45.456;11.064;2023-05-19T23:23:35;17.73;60.11
68746;SHT31;66104;45.456;11.064;2023-05-19T23:26:13;17.74;59.52
68746;SHT31;66104;45.456;11.064;2023-05-19T23:28:53;17.74;59.61
68746;SHT31;66104;45.456;11.064;2023-05-19T23:31:32;17.75;59.48
68746;SHT31;66104;45.456;11.064;2023-05-19T23:34:12;17.76;59.11
68746;SHT31;66104;45.456;11.064;2023-05-19T23:36:54;17.78;59.15
68746;SHT31;66104;45.456;11.064;2023-05-19T23:39:39;17.78;59.03
68746;SHT31;66104;45.456;11.064;2023-05-19T23:42:21;17.78;58.86
68746;SHT31;66104;45.456;11.064;2023-05-19T23:45:01;17.80;58.81
68746;SHT31;66104;45.456;11.064;2023-05-19T23:47:48;17.81;58.91
68746;SHT31;66104;45.456;11.064;2023-05-19T23:50:27;17.83;58.53
68746;SHT31;66104;45.456;11.064;2023-05-19T23:53:07;17.83;58.44
68746;SHT31;66104;45.456;11.064;2023-05-19T23:55:46;17.84;58.51
68746;SHT31;66104;45.456;11.064;2023-05-19T23:58:27;17.86;58.43
